Time;durP1;ratioP1;P1;durP2;ratioP2;P2;SDS_P1;SDS_P2;PMS_P1;PMS_P2;Temp;Humidity;BMP_temperature;BMP_pressure;BME280_temperature;BME280_humidity;BME280_pressure;Samples;Min_cycle;Max_cycle;Signal;HPM_P1;HPM_P2
2024/03/21 00:02:05;;;;;;;11.93;11.30;;;21.30;60.00;;;;;;4991847;28;20450;-64
2024/03/21 00:04:31;;;;;;;10.87;10.37;;;21.40;60.30;;;;;;4984618;28;20462;-65
2024/03/21 00:06:57;;;;;;;12.10;11.50;;;21.30;60.10;;;;;;4991919;28;20809;-64
2024/03/21 00:09:23;;;;;;;12.83;11.60;;;21.30;60.10;;;;;;4992106;28;20470;-66
2024/03/21 00:11:50;;;;;;;12.23;11.30;;;21.30;60.40;;;;;;4992248;28;20440;-64
2024/03/21 00:14:16;;;;;;;11.80;11.20;;;21.30;60.40;;;;;;4991831;28;20589;-66
2024/03/21 00:16:44;;;;;;;10.97;10.47;;;21.20;60.40;;;;;;4991606;28;20443;-65
2024/03/21 00:19:09;;;;;;;11.30;10.57;;;21.20;60.60;;;;;;4992321;28;20215;-65
2024/03/21 00:21:36;;;;;;;11.97;11.27;;;21.20;60.70;;;;;;4991928;28;20843;-65
2024/03/21 00:24:02;;;;;;;12.63;11.60;;;21.20;60.70;;;;;;4983453;28;20196;-65
2024/03/21 00:26:29;;;;;;;10.63;10.13;;;21.10;60.90;;;;;;4991651;28;20454;-65
2024/03/21 00:28:54;;;;;;;11.83;11.20;;;21.20;60.90;;;;;;4992265;28;20196;-65
2024/03/21 00:31:21;;;;;;;11.60;10.90;;;21.20;60.70;;;;;;4989550;28;20462;-65
2024/03/21 00:33:49;;;;;;;12.33;11.53;;;21.20;60.80;;;;;;4991875;28;20227;-66
2024/03/21 00:36:16;;;;;;;12.13;11.27;;;21.20;60.90;;;;;;4991717;28;20455;-65
2024/03/21 00:38:42;;;;;;;11.33;10.80;;;21.10;60.70;;;;;;4991951;28;20939;-64
2024/03/21 00:41:09;;;;;;;11.17;10.43;;;21.10;60.80;;;;;;4991847;28;20462;-64
2024/03/21 00:43:35;;;;;;;10.77;10.23;;;21.10;60.70;;;;;;4983276;28;20200;-65
2024/03/21 00:46:01;;;;;;;11.53;11.07;;;21.10;60.80;;;;;;4991614;28;20450;-64
2024/03/21 00:48:27;;;;;;;11.33;10.73;;;21.10;60.80;;;;;;4991849;28;20701;-65
2024/03/21 00:50:55;;;;;;;10.13;9.73;;;21.10;60.70;;;;;;4991778;28;20469;-64
2024/03/21 00:53:21;;;;;;;11.60;11.00;;;21.10;60.90;;;;;;4991796;28;20223;-65
2024/03/21 00:55:47;;;;;;;11.23;10.63;;;21.10;60.80;;;;;;4985281;28;20450;-64
2024/03/21 00:58:14;;;;;;;11.97;11.47;;;21.10;61.00;;;;;;4991792;28;20204;-65
2024/03/21 01:00:41;;;;;;;11.20;10.60;;;21.10;60.90;;;;;;4991533;28;20471;-63
2024/03/21 01:03:09;;;;;;;11.53;10.80;;;21.10;61.00;;;;;;4991799;28;20438;-65
2024/03/21 01:05:35;;;;;;;11.27;10.77;;;21.00;61.00;;;;;;4990994;28;20557;-65
2024/03/21 01:08:03;;;;;;;11.27;10.67;;;21.00;61.10;;;;;;4985675;28;20435;-66
2024/03/21 01:10:30;;;;;;;11.87;11.40;;;21.00;61.10;;;;;;4995345;28;20470;-65
2024/03/21 01:12:55;;;;;;;14.40;13.13;;;21.00;61.30;;;;;;4995368;28;20435;-64
2024/03/21 01:15:22;;;;;;;13.17;12.37;;;21.00;61.20;;;;;;4995433;28;20458;-66
2024/03/21 01:17:49;;;;;;;13.13;12.53;;;21.00;61.10;;;;;;4992615;28;20196;-64
2024/03/21 01:20:16;;;;;;;13.80;13.00;;;21.00;61.10;;;;;;4995058;28;20482;-65
2024/03/21 01:22:41;;;;;;;12.50;12.00;;;21.00;61.10;;;;;;4995493;28;20498;-66
2024/03/21 01:25:10;;;;;;;11.50;11.00;;;21.00;61.10;;;;;;4995179;28;20475;-66
2024/03/21 01:27:36;;;;;;;11.37;10.67;;;20.90;61.20;;;;;;4994624;28;20560;-65
2024/03/21 01:30:03;;;;;;;11.40;10.70;;;20.90;61.30;;;;;;4989402;28;20471;-64
2024/03/21 01:32:29;;;;;;;11.40;10.60;;;20.90;61.10;;;;;;4992572;28;20290;-64
2024/03/21 01:34:55;;;;;;;11.40;10.73;;;20.90;61.10;;;;;;4995081;28;20561;-64
2024/03/21 01:37:21;;;;;;;12.10;11.40;;;20.90;61.10;;;;;;4994100;28;20212;-65
2024/03/21 01:39:48;;;;;;;11.57;10.97;;;20.90;61.30;;;;;;4994236;28;20463;-65
2024/03/21 01:42:18;;;;;;;11.37;10.73;;;20.90;61.40;;;;;;4995091;28;20208;-65
2024/03/21 01:44:59;;;;;;;11.73;11.07;;;20.90;61.40;;;;;;4994836;28;20485;-65
2024/03/21 01:47:25;;;;;;;11.70;10.90;;;20.90;61.50;;;;;;4994384;28;20439;-64
2024/03/21 01:49:51;;;;;;;11.23;10.67;;;20.90;61.60;;;;;;4990613;28;20815;-63
2024/03/21 01:52:17;;;;;;;11.80;11.20;;;20.90;61.50;;;;;;4990387;28;20552;-65
2024/03/21 01:54:44;;;;;;;10.60;10.10;;;20.80;61.60;;;;;;4994592;28;20482;-64
2024/03/21 01:57:10;;;;;;;11.70;10.70;;;20.80;61.70;;;;;;4994280;28;20215;-65
2024/03/21 01:59:38;;;;;;;11.07;10.43;;;20.80;61.60;;;;;;4994451;28;20858;-65
2024/03/21 02:02:05;;;;;;;10.50;10.00;;;20.80;61.70;;;;;;4989898;28;20207;-65
2024/03/21 02:04:32;;;;;;;11.27;10.60;;;20.80;61.70;;;;;;4985755;28;20440;-65
2024/03/21 02:06:57;;;;;;;10.90;10.20;;;20.80;61.70;;;;;;4994066;28;20932;-65
2024/03/21 02:09:27;;;;;;;11.20;10.70;;;20.80;61.90;;;;;;4994447;28;20458;-63
2024/03/21 02:11:53;;;;;;;10.70;10.20;;;20.80;62.00;;;;;;4986540;28;20207;-64
2024/03/21 02:14:22;;;;;;;11.27;10.30;;;20.80;62.30;;;;;;4986682;28;20490;-65
2024/03/21 02:16:49;;;;;;;12.13;11.20;;;20.80;62.30;;;;;;4993413;28;20227;-65
2024/03/21 02:19:17;;;;;;;11.40;10.80;;;20.80;62.40;;;;;;4992942;28;20834;-64
2024/03/21 02:24:32;;;;;;;11.20;10.70;;;20.80;62.30;;;;;;4991275;28;20454;-65
2024/03/21 02:26:58;;;;;;;11.00;10.40;;;20.80;62.50;;;;;;4993834;28;20450;-65
2024/03/21 02:29:25;;;;;;;11.27;10.40;;;20.70;62.50;;;;;;4993925;28;20530;-64
2024/03/21 02:31:51;;;;;;;11.70;10.90;;;20.80;62.60;;;;;;4984387;28;20439;-64
2024/03/21 02:34:17;;;;;;;11.80;11.20;;;20.80;62.50;;;;;;4994001;28;20489;-65
2024/03/21 02:36:44;;;;;;;12.10;11.50;;;20.70;62.60;;;;;;4993563;28;20200;-65
2024/03/21 02:39:11;;;;;;;11.20;10.67;;;20.70;62.60;;;;;;4989057;28;20483;-64
2024/03/21 02:41:38;;;;;;;12.27;11.37;;;20.70;62.70;;;;;;4993952;28;20459;-65
2024/03/21 02:44:04;;;;;;;12.80;12.00;;;20.70;62.70;;;;;;4993613;28;20435;-64
2024/03/21 02:46:31;;;;;;;12.07;11.30;;;20.70;63.60;;;;;;4993459;28;20470;-64
2024/03/21 02:48:56;;;;;;;12.50;11.80;;;20.70;62.70;;;;;;4993747;28;20438;-65
2024/03/21 02:51:23;;;;;;;11.87;11.27;;;20.70;62.80;;;;;;4985700;28;20554;-65
2024/03/21 02:53:50;;;;;;;11.03;10.53;;;20.70;62.70;;;;;;4992938;28;20479;-66
2024/03/21 02:56:17;;;;;;;11.73;11.13;;;20.70;62.80;;;;;;4993154;28;20447;-64
2024/03/21 02:58:43;;;;;;;12.40;11.70;;;20.60;63.60;;;;;;4993227;28;20451;-65
2024/03/21 03:01:10;;;;;;;11.70;10.90;;;20.60;63.00;;;;;;4993461;28;20459;-65
2024/03/21 03:03:36;;;;;;;13.67;12.97;;;20.60;63.10;;;;;;4993428;28;20204;-65
2024/03/21 03:06:03;;;;;;;12.00;11.37;;;20.60;63.00;;;;;;4986748;28;21094;-65
2024/03/21 03:08:28;;;;;;;12.57;11.90;;;20.60;63.30;;;;;;4993117;28;20443;-64
2024/03/21 03:10:57;;;;;;;13.03;12.33;;;20.60;63.40;;;;;;4993053;28;20466;-66
2024/03/21 03:13:23;;;;;;;13.33;12.43;;;20.60;64.30;;;;;;4993116;28;20763;-65
2024/03/21 03:15:49;;;;;;;13.80;12.97;;;20.50;63.40;;;;;;4992655;28;20459;-65
2024/03/21 03:18:15;;;;;;;14.50;13.70;;;20.50;63.50;;;;;;4992507;28;20207;-64
2024/03/21 03:20:42;;;;;;;14.27;13.27;;;20.50;63.70;;;;;;4984688;28;20471;-64
2024/03/21 03:23:09;;;;;;;12.37;11.87;;;20.50;63.80;;;;;;4993137;28;20214;-65
2024/03/21 03:25:40;;;;;;;15.83;13.80;;;20.50;64.00;;;;;;4992621;28;20449;-64
2024/03/21 03:28:07;;;;;;;12.10;11.50;;;20.50;64.10;;;;;;4992879;28;20575;-66
2024/03/21 03:30:35;;;;;;;13.30;12.60;;;20.50;64.00;;;;;;4992222;28;20506;-65
2024/03/21 03:35:33;;;;;;;12.93;12.20;;;20.50;64.00;;;;;;4984239;28;20443;-64
2024/03/21 03:35:50;;;;;;;13.30;12.60;;;20.50;64.50;;;;;;4992360;28;20509;-65
2024/03/21 03:38:18;;;;;;;13.60;12.70;;;20.50;64.30;;;;;;4992778;28;20439;-65
2024/03/21 03:40:45;;;;;;;14.00;13.20;;;20.50;64.40;;;;;;4990259;28;20458;-64
2024/03/21 03:43:13;;;;;;;14.83;13.83;;;20.50;64.30;;;;;;4986569;28;20439;-64
2024/03/21 03:45:41;;;;;;;15.33;14.20;;;20.50;64.50;;;;;;4990694;28;20450;-64
2024/03/21 03:48:08;;;;;;;14.00;13.30;;;20.40;64.50;;;;;;4985931;28;20528;-65
2024/03/21 03:50:34;;;;;;;13.57;12.73;;;20.40;64.60;;;;;;4992322;28;20474;-64
2024/03/21 03:53:01;;;;;;;13.23;12.50;;;20.40;64.60;;;;;;4992606;28;20483;-65
2024/03/21 03:55:27;;;;;;;13.60;12.90;;;20.50;64.80;;;;;;4992228;28;20474;-65
2024/03/21 03:57:53;;;;;;;12.83;12.13;;;20.50;64.70;;;;;;4992327;28;20447;-65
2024/03/21 04:00:21;;;;;;;13.60;12.37;;;20.50;65.00;;;;;;4989851;28;20227;-64
2024/03/21 04:02:48;;;;;;;13.27;12.57;;;20.40;64.90;;;;;;4992278;28;20858;-65
2024/03/21 04:05:17;;;;;;;14.33;13.43;;;20.40;65.00;;;;;;4992396;28;20439;-64
2024/03/21 04:07:44;;;;;;;13.80;13.07;;;20.40;65.00;;;;;;4991912;28;20533;-64
2024/03/21 04:10:09;;;;;;;13.40;12.60;;;20.40;65.10;;;;;;4992302;28;20463;-64
2024/03/21 04:12:36;;;;;;;13.23;12.23;;;20.40;65.30;;;;;;4992124;28;20443;-66
2024/03/21 04:15:03;;;;;;;13.30;12.50;;;20.40;65.30;;;;;;4983468;28;20219;-64
2024/03/21 04:17:31;;;;;;;13.90;13.13;;;20.40;65.30;;;;;;4991829;28;20451;-65
2024/03/21 04:19:56;;;;;;;13.47;12.67;;;20.40;65.30;;;;;;4991964;28;20840;-66
2024/03/21 04:22:23;;;;;;;13.40;12.70;;;20.40;65.40;;;;;;4992085;28;20447;-65
2024/03/21 04:24:50;;;;;;;14.60;13.70;;;20.40;65.40;;;;;;4992109;28;20200;-65
2024/03/21 04:27:17;;;;;;;14.30;13.40;;;20.40;65.40;;;;;;4991509;28;20446;-64
2024/03/21 04:29:43;;;;;;;16.13;15.20;;;20.30;65.10;;;;;;4991550;28;20800;-66
2024/03/21 04:32:15;;;;;;;16.47;15.47;;;20.20;65.40;;;;;;4991949;28;20454;-64
2024/03/21 04:34:42;;;;;;;14.93;14.03;;;20.10;65.70;;;;;;4992093;28;20268;-66
2024/03/21 04:37:15;;;;;;;14.47;13.47;;;20.10;65.80;;;;;;4991783;28;20526;-64
2024/03/21 04:39:42;;;;;;;15.50;14.47;;;20.20;65.90;;;;;;4991778;28;20515;-65
2024/03/21 04:42:08;;;;;;;15.20;14.30;;;20.30;65.70;;;;;;4985693;28;20478;-66
2024/03/21 04:44:35;;;;;;;13.80;13.00;;;20.20;65.90;;;;;;4987596;28;20455;-64
2024/03/21 04:47:02;;;;;;;14.40;13.53;;;20.30;66.10;;;;;;4995762;28;20439;-64
2024/03/21 04:49:27;;;;;;;15.97;14.77;;;20.30;66.10;;;;;;4995599;28;20450;-65
2024/03/21 04:51:55;;;;;;;15.33;14.37;;;20.30;66.00;;;;;;4996023;28;20521;-64
2024/03/21 04:54:21;;;;;;;16.10;14.97;;;20.20;65.60;;;;;;4996090;28;20220;-64
2024/03/21 04:56:48;;;;;;;17.37;15.97;;;20.10;65.80;;;;;;4986575;28;20453;-65
2024/03/21 04:59:13;;;;;;;18.60;16.97;;;20.00;66.00;;;;;;4995565;28;20200;-63
2024/03/21 05:01:40;;;;;;;19.60;17.40;;;20.00;66.40;;;;;;4995500;28;20453;-63
2024/03/21 05:04:06;;;;;;;19.37;17.80;;;20.00;66.40;;;;;;4995741;28;20581;-65
2024/03/21 05:06:32;;;;;;;20.57;19.03;;;20.00;67.00;;;;;;4995177;28;20442;-62
2024/03/21 05:09:00;;;;;;;17.77;16.53;;;20.00;66.00;;;;;;4993877;28;20200;-62
2024/03/21 05:11:27;;;;;;;17.33;16.13;;;20.10;65.90;;;;;;4992125;28;20811;-63
2024/03/21 05:13:53;;;;;;;18.60;17.30;;;20.00;65.80;;;;;;4987503;28;20475;-63
2024/03/21 05:16:19;;;;;;;19.40;17.60;;;20.00;65.90;;;;;;4995063;28;20554;-63
2024/03/21 05:18:46;;;;;;;17.90;16.70;;;19.90;66.00;;;;;;4995032;28;20689;-64
2024/03/21 05:21:13;;;;;;;18.23;17.07;;;19.90;66.10;;;;;;4995269;28;20475;-63
2024/03/21 05:23:39;;;;;;;18.03;16.73;;;19.90;66.10;;;;;;4986479;28;20451;-64
2024/03/21 05:26:07;;;;;;;18.73;17.40;;;19.80;66.10;;;;;;4994883;28;20447;-62
2024/03/21 05:28:32;;;;;;;17.97;16.77;;;19.80;66.30;;;;;;4995123;28;20224;-62
2024/03/21 05:30:59;;;;;;;18.17;16.97;;;19.70;66.30;;;;;;4995146;28;20891;-64
2024/03/21 05:33:25;;;;;;;19.17;17.50;;;19.70;66.40;;;;;;4994923;28;20210;-64
2024/03/21 05:35:51;;;;;;;18.40;16.90;;;19.70;66.40;;;;;;4994553;28;20475;-63
2024/03/21 05:38:18;;;;;;;19.90;18.60;;;19.80;66.50;;;;;;4992021;28;20215;-63
2024/03/21 05:40:45;;;;;;;18.53;17.20;;;19.80;66.30;;;;;;4994827;28;20467;-63
2024/03/21 05:43:12;;;;;;;17.67;16.37;;;19.70;66.20;;;;;;4994731;28;20474;-68
2024/03/21 05:45:39;;;;;;;18.23;16.67;;;19.80;67.00;;;;;;4994514;28;20475;-68
2024/03/21 05:48:05;;;;;;;18.00;16.50;;;19.80;67.00;;;;;;4995120;28;20451;-64
2024/03/21 05:50:32;;;;;;;18.20;16.50;;;19.80;66.60;;;;;;4988970;28;20467;-64
2024/03/21 05:52:58;;;;;;;17.57;16.37;;;19.80;66.40;;;;;;4993995;28;20439;-64
2024/03/21 05:55:24;;;;;;;18.30;16.70;;;19.70;66.40;;;;;;4994711;28;20481;-64
2024/03/21 05:57:50;;;;;;;17.63;16.33;;;19.70;67.40;;;;;;4994383;28;20211;-63
2024/03/21 06:00:19;;;;;;;18.13;16.53;;;19.70;66.70;;;;;;4985791;28;20463;-70
2024/03/21 06:02:44;;;;;;;18.53;17.10;;;19.80;67.10;;;;;;4994462;28;20288;-70
2024/03/21 06:05:11;;;;;;;18.60;17.20;;;19.70;67.30;;;;;;4994728;28;20942;-68
2024/03/21 06:07:37;;;;;;;19.07;17.67;;;19.80;67.70;;;;;;4994404;28;20207;-69
2024/03/21 06:10:05;;;;;;;18.70;17.30;;;19.70;67.40;;;;;;4992629;28;20474;-68
2024/03/21 06:12:31;;;;;;;19.57;17.63;;;19.70;67.60;;;;;;4990132;28;20207;-68
2024/03/21 06:14:57;;;;;;;20.37;18.67;;;19.70;67.60;;;;;;4994512;28;20847;-67
2024/03/21 06:17:24;;;;;;;20.07;18.40;;;19.70;67.60;;;;;;4994011;28;20231;-67
2024/03/21 06:19:52;;;;;;;18.77;17.23;;;19.60;67.60;;;;;;4993933;28;20554;-68
2024/03/21 06:22:18;;;;;;;18.83;17.53;;;19.70;68.20;;;;;;4994167;28;20451;-68
2024/03/21 06:24:45;;;;;;;19.03;17.63;;;19.80;67.70;;;;;;4993511;28;20442;-67
2024/03/21 06:27:10;;;;;;;18.97;17.37;;;19.70;67.40;;;;;;4986527;28;20208;-67
2024/03/21 06:29:37;;;;;;;19.17;17.63;;;19.70;67.50;;;;;;4993815;28;20832;-69
2024/03/21 06:32:03;;;;;;;18.80;17.43;;;19.80;67.70;;;;;;4993971;28;20669;-67
2024/03/21 06:34:31;;;;;;;18.10;16.87;;;19.80;67.60;;;;;;4994362;28;20487;-67
2024/03/21 06:36:57;;;;;;;18.20;17.10;;;19.80;67.40;;;;;;4993443;28;20947;-67
2024/03/21 06:39:24;;;;;;;18.83;17.57;;;19.70;67.40;;;;;;4984960;28;20453;-67
2024/03/21 06:41:50;;;;;;;18.57;17.27;;;19.70;67.50;;;;;;4993696;28;20216;-67
2024/03/21 06:44:17;;;;;;;18.90;16.93;;;19.70;67.70;;;;;;4993873;28;20443;-66
2024/03/21 06:46:42;;;;;;;20.67;19.07;;;19.70;67.50;;;;;;4992788;28;20222;-67
2024/03/21 06:49:09;;;;;;;18.67;17.37;;;19.60;67.50;;;;;;4993582;28;20960;-68
2024/03/21 06:51:36;;;;;;;18.83;17.43;;;19.70;67.80;;;;;;4993048;28;20223;-68
2024/03/21 06:54:03;;;;;;;17.83;16.73;;;19.80;67.70;;;;;;4985342;28;20477;-68
2024/03/21 06:56:29;;;;;;;19.43;17.20;;;19.80;67.40;;;;;;4993210;28;20828;-66
2024/03/21 06:58:55;;;;;;;18.77;17.27;;;19.80;67.50;;;;;;4993394;28;20442;-66
2024/03/21 07:01:21;;;;;;;25.13;18.57;;;19.80;67.30;;;;;;4992442;28;20228;-66
2024/03/21 07:03:48;;;;;;;19.37;18.03;;;19.70;67.50;;;;;;4993378;28;20959;-68
2024/03/21 07:06:14;;;;;;;18.83;17.33;;;19.70;67.40;;;;;;4985587;28;20254;-67
2024/03/21 07:08:41;;;;;;;18.90;17.80;;;19.70;67.20;;;;;;4993320;28;20443;-65
2024/03/21 07:11:07;;;;;;;20.67;19.00;;;19.70;67.50;;;;;;4985101;28;20228;-66
2024/03/21 07:13:34;;;;;;;21.07;19.43;;;19.70;67.20;;;;;;4993386;28;20459;-67
2024/03/21 07:16:00;;;;;;;19.70;18.10;;;19.60;67.80;;;;;;4992698;28;20514;-67
2024/03/21 07:18:27;;;;;;;21.03;19.20;;;19.70;67.30;;;;;;4984749;28;20490;-66
2024/03/21 07:20:55;;;;;;;20.50;18.93;;;19.60;67.40;;;;;;4992757;28;20239;-66
2024/03/21 07:23:22;;;;;;;18.70;17.40;;;19.60;67.30;;;;;;4993139;28;20447;-67
2024/03/21 07:25:49;;;;;;;20.67;19.20;;;19.60;67.30;;;;;;4992563;28;20439;-62
2024/03/21 07:28:16;;;;;;;20.33;18.93;;;19.60;67.00;;;;;;4993113;28;20534;-68
2024/03/21 07:30:41;;;;;;;18.43;17.13;;;19.50;66.80;;;;;;4992839;28;20463;-66
2024/03/21 07:33:08;;;;;;;18.10;16.80;;;19.70;67.60;;;;;;4984428;28;20443;-66
2024/03/21 07:35:34;;;;;;;16.70;15.63;;;19.80;67.50;;;;;;4992587;28;20226;-65
2024/03/21 07:38:00;;;;;;;14.67;13.87;;;19.90;67.10;;;;;;4992947;28;20442;-65
2024/03/21 07:40:26;;;;;;;15.27;14.10;;;20.00;67.10;;;;;;4992701;28;20239;-67
2024/03/21 07:42:54;;;;;;;14.77;14.07;;;20.10;67.30;;;;;;4992917;28;20439;-66
2024/03/21 07:45:20;;;;;;;14.40;13.60;;;20.10;67.00;;;;;;4991186;28;20207;-66
2024/03/21 07:47:46;;;;;;;13.20;12.60;;;20.20;67.10;;;;;;4984371;28;20447;-68
2024/03/21 07:50:12;;;;;;;14.10;13.40;;;20.20;67.00;;;;;;4992509;28;20227;-65
2024/03/21 07:52:39;;;;;;;14.07;13.00;;;20.20;67.70;;;;;;4992743;28;20446;-66
2024/03/21 07:55:05;;;;;;;12.90;12.37;;;20.20;67.30;;;;;;4992546;28;20212;-65
2024/03/21 07:57:32;;;;;;;13.43;12.90;;;20.30;67.30;;;;;;4991597;28;20443;-64
2024/03/21 07:59:59;;;;;;;13.07;12.40;;;20.30;67.10;;;;;;4984129;28;20471;-64
2024/03/21 08:02:26;;;;;;;13.60;12.80;;;20.30;67.30;;;;;;4992753;28;20534;-65
2024/03/21 08:04:51;;;;;;;14.00;13.30;;;20.30;67.20;;;;;;4992323;28;20439;-64
2024/03/21 08:07:18;;;;;;;13.53;12.83;;;20.40;67.30;;;;;;4986412;28;20438;-64
2024/03/21 08:09:44;;;;;;;12.73;12.33;;;20.40;67.30;;;;;;4992266;28;20737;-65
2024/03/21 08:12:12;;;;;;;13.00;12.50;;;20.40;67.20;;;;;;4976625;28;20446;-66
2024/03/21 08:14:38;;;;;;;12.70;12.30;;;20.40;67.20;;;;;;4992117;28;20647;-65
2024/03/21 08:17:06;;;;;;;13.17;12.57;;;20.40;67.30;;;;;;4989862;28;20451;-68
2024/03/21 08:19:32;;;;;;;12.47;11.97;;;20.40;67.50;;;;;;4986778;28;21847;-67
2024/03/21 08:22:00;;;;;;;12.40;11.93;;;20.50;67.50;;;;;;4991882;28;20450;-69
2024/03/21 08:24:26;;;;;;;12.77;12.27;;;20.50;67.70;;;;;;4992244;28;20446;-69
2024/03/21 08:26:53;;;;;;;12.60;12.10;;;20.50;67.60;;;;;;4991535;28;20435;-61
2024/03/21 08:29:19;;;;;;;12.53;11.93;;;20.50;68.00;;;;;;4992041;28;20495;-67
2024/03/21 08:31:45;;;;;;;12.13;11.73;;;20.50;67.70;;;;;;4984895;28;20812;-64
2024/03/21 08:34:12;;;;;;;13.43;12.90;;;20.50;67.60;;;;;;4974835;28;20196;-64
2024/03/21 08:36:39;;;;;;;12.53;12.07;;;20.50;68.30;;;;;;4990023;28;20562;-64
2024/03/21 08:39:05;;;;;;;13.33;12.40;;;20.50;67.80;;;;;;4986589;28;20524;-67
2024/03/21 08:41:32;;;;;;;12.27;11.77;;;20.50;67.60;;;;;;4988745;28;20490;-67
2024/03/21 08:43:57;;;;;;;12.90;12.30;;;20.50;67.50;;;;;;4991681;28;20196;-66
2024/03/21 08:46:26;;;;;;;11.70;11.37;;;20.50;67.40;;;;;;4991408;28;20435;-65
2024/03/21 08:48:51;;;;;;;12.77;12.10;;;20.60;67.70;;;;;;4991897;28;20207;-63
2024/03/21 08:51:19;;;;;;;12.80;12.20;;;20.60;67.50;;;;;;4987837;28;20831;-64
2024/03/21 08:53:45;;;;;;;13.40;12.80;;;20.60;67.30;;;;;;4992037;28;20196;-65
2024/03/21 08:56:12;;;;;;;12.57;12.17;;;20.60;67.20;;;;;;4991338;28;20475;-67
2024/03/21 08:58:38;;;;;;;12.90;12.30;;;20.60;67.40;;;;;;4991843;28;20208;-65
2024/03/21 09:01:04;;;;;;;11.97;11.57;;;20.60;67.10;;;;;;4990396;28;20467;-65
2024/03/21 09:03:31;;;;;;;12.37;11.97;;;20.60;67.00;;;;;;4991821;28;20287;-64
2024/03/21 09:05:58;;;;;;;12.00;11.60;;;20.60;67.20;;;;;;4991223;28;20493;-65
2024/03/21 09:08:25;;;;;;;12.83;12.33;;;20.60;67.10;;;;;;4991896;28;20450;-67
2024/03/21 09:10:52;;;;;;;13.87;13.00;;;20.70;67.10;;;;;;4985139;28;20501;-66
2024/03/21 09:13:17;;;;;;;13.57;12.60;;;20.70;67.30;;;;;;4991606;28;20811;-67
2024/03/21 09:15:44;;;;;;;17.50;11.87;;;20.70;67.20;;;;;;4991444;28;20470;-65
2024/03/21 09:18:10;;;;;;;12.73;11.93;;;20.70;68.50;;;;;;4991646;28;20729;-65
2024/03/21 09:20:37;;;;;;;12.93;11.97;;;20.70;68.60;;;;;;4991369;28;20471;-66
2024/03/21 09:23:03;;;;;;;11.90;11.40;;;20.70;69.00;;;;;;4991217;28;20211;-66
2024/03/21 09:25:31;;;;;;;12.20;11.10;;;20.70;68.40;;;;;;4991544;28;20535;-67
2024/03/21 09:27:57;;;;;;;12.47;11.87;;;20.70;68.40;;;;;;4991831;28;20443;-63
2024/03/21 09:30:24;;;;;;;13.40;12.60;;;20.70;68.40;;;;;;4995037;28;20470;-65
2024/03/21 09:32:50;;;;;;;12.97;12.37;;;20.80;68.70;;;;;;4993736;28;20219;-66
2024/03/21 09:35:16;;;;;;;11.80;11.40;;;20.70;68.40;;;;;;4994841;28;20552;-66
2024/03/21 09:37:43;;;;;;;12.50;11.90;;;20.70;67.70;;;;;;4994581;28;20687;-66
2024/03/21 09:40:12;;;;;;;12.70;12.00;;;20.60;67.40;;;;;;4994591;28;20473;-64
2024/03/21 09:42:40;;;;;;;12.43;11.90;;;20.60;68.80;;;;;;4994797;28;20843;-67
2024/03/21 09:45:12;;;;;;;10.57;10.10;;;20.60;67.90;;;;;;4991172;28;20468;-64
2024/03/21 09:47:39;;;;;;;11.97;11.57;;;20.60;67.80;;;;;;4989581;28;20230;-63
2024/03/21 09:50:08;;;;;;;12.43;11.80;;;20.70;67.90;;;;;;4994540;28;20466;-64
2024/03/21 09:52:34;;;;;;;12.87;12.17;;;20.80;67.60;;;;;;4994543;28;20943;-63
2024/03/21 09:55:01;;;;;;;13.00;11.93;;;20.80;67.50;;;;;;4994516;28;20569;-66
2024/03/21 09:57:27;;;;;;;13.40;12.87;;;20.80;67.40;;;;;;4988669;28;20440;-68
2024/03/21 09:59:55;;;;;;;13.07;12.63;;;20.70;67.80;;;;;;4991419;28;20565;-68
2024/03/21 10:02:21;;;;;;;13.27;12.87;;;20.80;67.60;;;;;;4994669;28;20731;-69
2024/03/21 10:04:49;;;;;;;13.20;12.70;;;20.80;67.80;;;;;;4994437;28;20530;-68
2024/03/21 10:07:16;;;;;;;12.40;12.00;;;20.80;67.70;;;;;;4994020;28;20204;-69
2024/03/21 10:09:43;;;;;;;12.10;11.80;;;20.80;67.70;;;;;;4987326;28;20851;-68
2024/03/21 10:12:09;;;;;;;13.30;12.90;;;20.80;67.60;;;;;;4994378;28;20450;-68
2024/03/21 10:14:35;;;;;;;13.20;12.60;;;20.80;68.20;;;;;;4994238;28;20439;-66
2024/03/21 10:17:03;;;;;;;12.90;12.40;;;20.80;67.50;;;;;;4991846;28;20200;-66
2024/03/21 10:19:29;;;;;;;10.67;10.17;;;20.80;67.30;;;;;;4986844;28;20532;-67
2024/03/21 10:21:55;;;;;;;10.70;10.30;;;20.80;67.30;;;;;;4993865;28;20443;-68
2024/03/21 10:24:22;;;;;;;10.90;10.60;;;20.80;67.00;;;;;;4994085;28;20466;-65
2024/03/21 10:26:48;;;;;;;15.53;14.90;;;20.90;66.90;;;;;;4989344;28;20201;-68
2024/03/21 10:29:16;;;;;;;15.27;14.80;;;20.80;66.60;;;;;;4992397;28;20438;-70
2024/03/21 10:31:43;;;;;;;14.63;14.13;;;20.80;66.50;;;;;;4994086;28;20454;-70
2024/03/21 10:34:12;;;;;;;15.50;15.00;;;20.80;66.40;;;;;;4993870;28;20471;-69
2024/03/21 10:36:38;;;;;;;15.43;14.83;;;20.80;66.60;;;;;;4993576;28;20479;-65
2024/03/21 10:39:09;;;;;;;15.30;14.80;;;20.80;66.80;;;;;;4990616;28;20455;-67
2024/03/21 10:41:37;;;;;;;15.30;14.80;;;20.80;66.30;;;;;;4987581;28;20243;-67
2024/03/21 10:44:06;;;;;;;15.87;15.37;;;20.80;66.20;;;;;;4993864;28;20470;-67
2024/03/21 10:46:35;;;;;;;15.77;15.27;;;20.80;66.70;;;;;;4993814;28;20435;-68
2024/03/21 10:49:03;;;;;;;15.20;14.70;;;20.80;66.90;;;;;;4986769;28;20870;-68
2024/03/21 10:51:30;;;;;;;15.67;15.07;;;20.80;67.00;;;;;;4997249;28;20874;-69
2024/03/21 10:53:58;;;;;;;16.67;15.83;;;20.80;67.10;;;;;;4996275;28;20454;-69
2024/03/21 10:56:25;;;;;;;14.67;14.27;;;20.80;67.20;;;;;;4994031;28;20489;-69
2024/03/21 10:58:57;;;;;;;15.40;14.90;;;20.80;67.30;;;;;;4994756;28;20996;-70
2024/03/21 11:01:33;;;;;;;14.63;14.23;;;20.80;67.10;;;;;;4987411;28;20459;-67
2024/03/21 11:04:04;;;;;;;15.63;15.13;;;20.80;67.00;;;;;;4993622;28;20446;-68
2024/03/21 11:06:35;;;;;;;15.20;14.70;;;20.80;67.00;;;;;;4993160;28;20435;-68
2024/03/21 11:09:03;;;;;;;16.33;15.83;;;20.80;66.90;;;;;;4995812;28;20944;-66
2024/03/21 11:11:29;;;;;;;15.00;14.60;;;20.80;66.90;;;;;;4990240;28;20575;-65
2024/03/21 11:14:00;;;;;;;14.73;14.30;;;20.80;66.70;;;;;;4991269;28;20435;-64
2024/03/21 11:16:26;;;;;;;15.47;14.97;;;20.80;66.50;;;;;;4992716;28;20482;-68
2024/03/21 11:18:53;;;;;;;15.80;15.10;;;20.80;66.90;;;;;;4993347;28;20936;-68
2024/03/21 11:21:19;;;;;;;15.37;14.90;;;20.80;67.00;;;;;;4984979;28;20478;-68
2024/03/21 11:23:47;;;;;;;15.77;15.27;;;20.90;67.40;;;;;;4994388;28;20819;-67
2024/03/21 11:26:14;;;;;;;16.00;15.40;;;20.80;67.20;;;;;;4993052;28;20207;-68
2024/03/21 11:28:42;;;;;;;15.73;15.13;;;20.80;68.30;;;;;;4993006;28;20463;-67
2024/03/21 11:31:18;;;;;;;16.43;15.77;;;20.80;67.90;;;;;;4992202;28;20458;-66
2024/03/21 11:33:45;;;;;;;16.03;15.53;;;20.80;68.20;;;;;;4992978;28;20442;-69
2024/03/21 11:36:11;;;;;;;16.60;16.00;;;20.90;69.50;;;;;;4992282;28;20478;-68
2024/03/21 11:38:38;;;;;;;16.43;15.73;;;20.90;68.90;;;;;;4992827;28;20435;-67
2024/03/21 11:41:05;;;;;;;14.87;13.87;;;20.90;69.10;;;;;;4991989;28;20452;-65
2024/03/21 11:43:32;;;;;;;16.30;15.80;;;20.90;69.30;;;;;;4987509;28;20450;-66
2024/03/21 11:45:58;;;;;;;15.20;14.60;;;21.00;69.70;;;;;;4989552;28;20439;-69
2024/03/21 11:48:26;;;;;;;16.20;15.70;;;21.00;69.30;;;;;;4992727;28;20443;-71
2024/03/21 11:50:53;;;;;;;15.93;15.33;;;21.00;69.60;;;;;;4992526;28;20228;-71
2024/03/21 11:53:19;;;;;;;15.30;14.70;;;21.10;69.70;;;;;;4992438;28;20443;-69
2024/03/21 11:55:48;;;;;;;15.33;14.93;;;21.00;69.70;;;;;;4984751;28;20558;-74
2024/03/21 11:58:15;;;;;;;15.10;14.50;;;21.00;69.60;;;;;;4991963;28;20447;-72
2024/03/21 12:00:42;;;;;;;15.20;14.60;;;21.00;69.80;;;;;;4993151;28;20470;-69
2024/03/21 12:03:10;;;;;;;14.70;14.20;;;21.00;70.10;;;;;;4992982;28;20443;-67
2024/03/21 12:05:37;;;;;;;15.00;14.50;;;21.00;70.30;;;;;;4992010;28;20447;-71
2024/03/21 12:08:03;;;;;;;16.20;14.97;;;21.00;70.40;;;;;;4979275;28;20544;-67
2024/03/21 12:10:30;;;;;;;16.33;15.73;;;21.00;70.20;;;;;;4987415;28;20463;-70
2024/03/21 12:12:56;;;;;;;16.17;15.57;;;21.00;70.50;;;;;;4992981;28;20888;-68
2024/03/21 12:15:24;;;;;;;16.60;16.00;;;21.00;70.10;;;;;;4983980;28;20562;-68
2024/03/21 12:17:50;;;;;;;14.90;14.50;;;21.00;70.20;;;;;;4992419;28;20195;-68
2024/03/21 12:20:17;;;;;;;15.50;14.90;;;21.10;70.40;;;;;;4983498;28;20868;-69
2024/03/21 12:22:42;;;;;;;15.50;15.00;;;21.10;70.40;;;;;;4992216;28;20207;-69
2024/03/21 12:25:09;;;;;;;15.50;15.00;;;21.10;70.30;;;;;;4992049;28;20823;-68
2024/03/21 12:27:35;;;;;;;16.27;15.57;;;21.10;70.10;;;;;;4986663;28;20207;-68
2024/03/21 12:30:02;;;;;;;16.07;15.47;;;21.10;70.00;;;;;;4991753;28;20467;-68